EGKB

London Biggin Hill Airport

London, United Kingdom
METAR EGKB 171150Z 22009KT CAVOK 08/05 Q1018
Observed Flight Rules
Dec-17 @ 11:50 UTC (18 minutes ago) Visual Flight Rules
Wind Visibility Clouds
220° at 9 knots 10,000+ meters
  • Clear skies
Temperatures Readings
Current 8°C / 46°F
Dewpoint 5°C / 41°F
Humidity 82%
Altimeter 30.06" Hg
Pressure 1018 hPa
Elevation 183
METAR EGKB 171150Z 22009KT CAVOK 08/05 Q1018
Observed Flight Rules
Dec-17 @ 11:50 UTC
(18 minutes ago)
VFR
Wind Visibility
220° at 9 knots 10,000+ meters
Clouds
  • Clear skies
Temperature Dewpoint
8°C / 46°F 5°C / 41°F
Humidity Altimeter Pressure
82% 30.06" Hg 1018 hPa